sensor_id;sensor_type;location;lat;lon;timestamp;pressure;altitude;pressure_sealevel;temperature
15607;BMP180;7865;50.918;4.510;2023-02-18T00:02:03;101878.00;;;10.60
15607;BMP180;7865;50.918;4.510;2023-02-18T00:07:05;101871.00;;;10.60
15607;BMP180;7865;50.918;4.510;2023-02-18T00:12:07;101852.00;;;10.60
15607;BMP180;7865;50.918;4.510;2023-02-18T00:17:09;101854.00;;;10.60
15607;BMP180;7865;50.918;4.510;2023-02-18T00:22:11;101849.00;;;10.60
15607;BMP180;7865;50.918;4.510;2023-02-18T00:27:13;101837.00;;;10.60
15607;BMP180;7865;50.918;4.510;2023-02-18T00:32:15;101820.00;;;10.60
15607;BMP180;7865;50.918;4.510;2023-02-18T00:37:17;101831.00;;;10.60
15607;BMP180;7865;50.918;4.510;2023-02-18T00:42:19;101824.00;;;10.60
15607;BMP180;7865;50.918;4.510;2023-02-18T00:47:21;101818.00;;;10.60
15607;BMP180;7865;50.918;4.510;2023-02-18T00:52:23;101816.00;;;10.60
15607;BMP180;7865;50.918;4.510;2023-02-18T00:57:25;101802.00;;;10.60
15607;BMP180;7865;50.918;4.510;2023-02-18T01:02:27;101786.00;;;10.50
15607;BMP180;7865;50.918;4.510;2023-02-18T01:07:29;101782.00;;;10.50
15607;BMP180;7865;50.918;4.510;2023-02-18T01:12:31;101781.00;;;10.50
15607;BMP180;7865;50.918;4.510;2023-02-18T01:17:33;101778.00;;;10.50
15607;BMP180;7865;50.918;4.510;2023-02-18T01:22:39;101769.00;;;10.50
15607;BMP180;7865;50.918;4.510;2023-02-18T01:27:41;101776.00;;;10.50
15607;BMP180;7865;50.918;4.510;2023-02-18T01:32:44;101776.00;;;10.40
15607;BMP180;7865;50.918;4.510;2023-02-18T01:37:46;101767.00;;;10.40
15607;BMP180;7865;50.918;4.510;2023-02-18T01:42:49;101764.00;;;10.30
15607;BMP180;7865;50.918;4.510;2023-02-18T01:47:51;101755.00;;;10.20
15607;BMP180;7865;50.918;4.510;2023-02-18T01:52:53;101762.00;;;10.20
15607;BMP180;7865;50.918;4.510;2023-02-18T01:57:55;101758.00;;;10.20
15607;BMP180;7865;50.918;4.510;2023-02-18T02:02:57;101750.00;;;10.10
15607;BMP180;7865;50.918;4.510;2023-02-18T02:08:00;101749.00;;;10.10
15607;BMP180;7865;50.918;4.510;2023-02-18T02:13:14;101735.00;;;10.10
15607;BMP180;7865;50.918;4.510;2023-02-18T02:23:52;101727.00;;;10.10
15607;BMP180;7865;50.918;4.510;2023-02-18T02:35:02;101717.00;;;10.10
15607;BMP180;7865;50.918;4.510;2023-02-18T02:55:40;101698.00;;;10.10
15607;BMP180;7865;50.918;4.510;2023-02-18T03:01:03;101693.00;;;10.00
15607;BMP180;7865;50.918;4.510;2023-02-18T03:11:22;101701.00;;;10.00
15607;BMP180;7865;50.918;4.510;2023-02-18T03:16:36;101690.00;;;10.00
15607;BMP180;7865;50.918;4.510;2023-02-18T03:21:52;101678.00;;;10.00
15607;BMP180;7865;50.918;4.510;2023-02-18T03:27:10;101669.00;;;10.00
15607;BMP180;7865;50.918;4.510;2023-02-18T03:32:16;101645.00;;;10.00
15607;BMP180;7865;50.918;4.510;2023-02-18T03:37:19;101653.00;;;10.00
15607;BMP180;7865;50.918;4.510;2023-02-18T03:42:27;101656.00;;;9.90
15607;BMP180;7865;50.918;4.510;2023-02-18T03:47:29;101646.00;;;9.90
15607;BMP180;7865;50.918;4.510;2023-02-18T03:52:31;101641.00;;;9.90
15607;BMP180;7865;50.918;4.510;2023-02-18T03:57:33;101636.00;;;9.90
15607;BMP180;7865;50.918;4.510;2023-02-18T04:02:35;101642.00;;;9.90
15607;BMP180;7865;50.918;4.510;2023-02-18T04:07:37;101622.00;;;9.90
15607;BMP180;7865;50.918;4.510;2023-02-18T04:12:39;101622.00;;;9.90
15607;BMP180;7865;50.918;4.510;2023-02-18T04:17:41;101616.00;;;9.90
15607;BMP180;7865;50.918;4.510;2023-02-18T04:22:43;101604.00;;;9.90
15607;BMP180;7865;50.918;4.510;2023-02-18T04:27:45;101600.00;;;9.80
15607;BMP180;7865;50.918;4.510;2023-02-18T04:32:47;101609.00;;;9.80
15607;BMP180;7865;50.918;4.510;2023-02-18T04:37:49;101604.00;;;9.80
15607;BMP180;7865;50.918;4.510;2023-02-18T04:42:51;101613.00;;;9.80
15607;BMP180;7865;50.918;4.510;2023-02-18T04:47:54;101613.00;;;9.80
15607;BMP180;7865;50.918;4.510;2023-02-18T04:52:56;101616.00;;;9.80
15607;BMP180;7865;50.918;4.510;2023-02-18T04:57:58;101628.00;;;9.80
15607;BMP180;7865;50.918;4.510;2023-02-18T05:02:59;101624.00;;;9.80
15607;BMP180;7865;50.918;4.510;2023-02-18T05:08:02;101630.00;;;9.80
15607;BMP180;7865;50.918;4.510;2023-02-18T05:13:04;101629.00;;;9.70
15607;BMP180;7865;50.918;4.510;2023-02-18T05:18:06;101625.00;;;9.80
15607;BMP180;7865;50.918;4.510;2023-02-18T05:23:08;101614.00;;;9.70
15607;BMP180;7865;50.918;4.510;2023-02-18T05:28:10;101605.00;;;9.70
15607;BMP180;7865;50.918;4.510;2023-02-18T05:33:12;101607.00;;;9.70
15607;BMP180;7865;50.918;4.510;2023-02-18T05:38:14;101586.00;;;9.70
15607;BMP180;7865;50.918;4.510;2023-02-18T05:43:16;101577.00;;;9.70
15607;BMP180;7865;50.918;4.510;2023-02-18T05:48:18;101582.00;;;9.60
15607;BMP180;7865;50.918;4.510;2023-02-18T05:53:20;101574.00;;;9.50
15607;BMP180;7865;50.918;4.510;2023-02-18T05:58:22;101600.00;;;9.50
15607;BMP180;7865;50.918;4.510;2023-02-18T06:03:24;101577.00;;;9.40
15607;BMP180;7865;50.918;4.510;2023-02-18T06:08:26;101573.00;;;9.40
15607;BMP180;7865;50.918;4.510;2023-02-18T06:13:28;101577.00;;;9.30
15607;BMP180;7865;50.918;4.510;2023-02-18T06:18:30;101566.00;;;9.30
15607;BMP180;7865;50.918;4.510;2023-02-18T06:23:31;101571.00;;;9.30
15607;BMP180;7865;50.918;4.510;2023-02-18T06:28:33;101562.00;;;9.30
15607;BMP180;7865;50.918;4.510;2023-02-18T06:33:35;101564.00;;;9.30
15607;BMP180;7865;50.918;4.510;2023-02-18T06:38:40;101586.00;;;9.30
15607;BMP180;7865;50.918;4.510;2023-02-18T06:43:42;101570.00;;;9.30
15607;BMP180;7865;50.918;4.510;2023-02-18T06:48:44;101567.00;;;9.30
15607;BMP180;7865;50.918;4.510;2023-02-18T06:53:46;101549.00;;;9.40
15607;BMP180;7865;50.918;4.510;2023-02-18T06:58:48;101561.00;;;9.40
15607;BMP180;7865;50.918;4.510;2023-02-18T07:03:50;101561.00;;;9.40
15607;BMP180;7865;50.918;4.510;2023-02-18T07:08:51;101552.00;;;9.40
15607;BMP180;7865;50.918;4.510;2023-02-18T07:13:53;101548.00;;;9.50
15607;BMP180;7865;50.918;4.510;2023-02-18T07:18:55;101564.00;;;9.50
15607;BMP180;7865;50.918;4.510;2023-02-18T07:23:57;101548.00;;;9.60
15607;BMP180;7865;50.918;4.510;2023-02-18T07:28:59;101563.00;;;9.60
15607;BMP180;7865;50.918;4.510;2023-02-18T07:34:01;101562.00;;;9.60
15607;BMP180;7865;50.918;4.510;2023-02-18T07:39:03;101568.00;;;9.80
15607;BMP180;7865;50.918;4.510;2023-02-18T07:44:05;101576.00;;;9.80
15607;BMP180;7865;50.918;4.510;2023-02-18T07:49:08;101567.00;;;9.90
15607;BMP180;7865;50.918;4.510;2023-02-18T07:54:10;101572.00;;;10.10
15607;BMP180;7865;50.918;4.510;2023-02-18T07:59:13;101579.00;;;10.10
15607;BMP180;7865;50.918;4.510;2023-02-18T08:04:15;101574.00;;;10.20
15607;BMP180;7865;50.918;4.510;2023-02-18T08:09:17;101582.00;;;10.40
15607;BMP180;7865;50.918;4.510;2023-02-18T08:14:19;101591.00;;;10.40
15607;BMP180;7865;50.918;4.510;2023-02-18T08:19:21;101596.00;;;10.40
15607;BMP180;7865;50.918;4.510;2023-02-18T08:24:24;101593.00;;;10.40
15607;BMP180;7865;50.918;4.510;2023-02-18T08:29:26;101589.00;;;10.60
15607;BMP180;7865;50.918;4.510;2023-02-18T08:34:28;101592.00;;;10.80
15607;BMP180;7865;50.918;4.510;2023-02-18T08:39:36;101592.00;;;11.00
15607;BMP180;7865;50.918;4.510;2023-02-18T08:44:40;101584.00;;;11.20
15607;BMP180;7865;50.918;4.510;2023-02-18T08:49:42;101590.00;;;11.40
15607;BMP180;7865;50.918;4.510;2023-02-18T08:54:45;101572.00;;;11.40
15607;BMP180;7865;50.918;4.510;2023-02-18T08:59:46;101573.00;;;11.50
15607;BMP180;7865;50.918;4.510;2023-02-18T09:04:49;101559.00;;;11.80
15607;BMP180;7865;50.918;4.510;2023-02-18T09:09:51;101561.00;;;12.00
15607;BMP180;7865;50.918;4.510;2023-02-18T09:14:53;101578.00;;;11.80
15607;BMP180;7865;50.918;4.510;2023-02-18T09:19:55;101580.00;;;11.70
15607;BMP180;7865;50.918;4.510;2023-02-18T09:24:57;101573.00;;;11.60
15607;BMP180;7865;50.918;4.510;2023-02-18T09:29:59;101582.00;;;11.70
15607;BMP180;7865;50.918;4.510;2023-02-18T09:35:03;101581.00;;;11.70
15607;BMP180;7865;50.918;4.510;2023-02-18T09:40:06;101581.00;;;11.80
15607;BMP180;7865;50.918;4.510;2023-02-18T09:45:10;101575.00;;;12.00
15607;BMP180;7865;50.918;4.510;2023-02-18T09:50:21;101583.00;;;12.50
15607;BMP180;7865;50.918;4.510;2023-02-18T09:55:37;101590.00;;;12.30
15607;BMP180;7865;50.918;4.510;2023-02-18T10:00:50;101590.00;;;12.20
15607;BMP180;7865;50.918;4.510;2023-02-18T10:06:09;101594.00;;;12.20
15607;BMP180;7865;50.918;4.510;2023-02-18T10:11:22;101590.00;;;12.20
15607;BMP180;7865;50.918;4.510;2023-02-18T10:16:26;101599.00;;;12.10
15607;BMP180;7865;50.918;4.510;2023-02-18T10:21:32;101603.00;;;12.10
15607;BMP180;7865;50.918;4.510;2023-02-18T10:26:37;101606.00;;;12.00
15607;BMP180;7865;50.918;4.510;2023-02-18T10:31:44;101605.00;;;12.00
15607;BMP180;7865;50.918;4.510;2023-02-18T10:36:52;101602.00;;;12.10
15607;BMP180;7865;50.918;4.510;2023-02-18T10:47:15;101605.00;;;12.20
15607;BMP180;7865;50.918;4.510;2023-02-18T10:52:20;101608.00;;;12.30
15607;BMP180;7865;50.918;4.510;2023-02-18T10:57:23;101608.00;;;12.40
15607;BMP180;7865;50.918;4.510;2023-02-18T11:02:30;101618.00;;;12.40
15607;BMP180;7865;50.918;4.510;2023-02-18T11:07:34;101616.00;;;12.30
15607;BMP180;7865;50.918;4.510;2023-02-18T11:12:48;101615.00;;;12.30
15607;BMP180;7865;50.918;4.510;2023-02-18T11:17:53;101622.00;;;12.20
15607;BMP180;7865;50.918;4.510;2023-02-18T11:22:57;101621.00;;;12.30
15607;BMP180;7865;50.918;4.510;2023-02-18T11:28:01;101617.00;;;12.20
15607;BMP180;7865;50.918;4.510;2023-02-18T11:33:22;101619.00;;;12.20
15607;BMP180;7865;50.918;4.510;2023-02-18T11:38:37;101619.00;;;12.30
15607;BMP180;7865;50.918;4.510;2023-02-18T11:43:46;101627.00;;;12.30
15607;BMP180;7865;50.918;4.510;2023-02-18T11:48:50;101623.00;;;12.40
15607;BMP180;7865;50.918;4.510;2023-02-18T11:54:09;101633.00;;;12.40
15607;BMP180;7865;50.918;4.510;2023-02-18T11:59:21;101615.00;;;12.30
15607;BMP180;7865;50.918;4.510;2023-02-18T12:04:30;101613.00;;;12.30
15607;BMP180;7865;50.918;4.510;2023-02-18T12:09:37;101605.00;;;12.30
15607;BMP180;7865;50.918;4.510;2023-02-18T12:14:40;101627.00;;;12.30
15607;BMP180;7865;50.918;4.510;2023-02-18T12:25:28;101621.00;;;12.30
15607;BMP180;7865;50.918;4.510;2023-02-18T12:42:06;101616.00;;;12.30
15607;BMP180;7865;50.918;4.510;2023-02-18T13:19:20;101634.00;;;11.50
15607;BMP180;7865;50.918;4.510;2023-02-18T13:24:30;101631.00;;;11.50
15607;BMP180;7865;50.918;4.510;2023-02-18T13:29:46;101626.00;;;11.40
15607;BMP180;7865;50.918;4.510;2023-02-18T13:40:26;101617.00;;;11.60
15607;BMP180;7865;50.918;4.510;2023-02-18T13:45:31;101616.00;;;11.70
15607;BMP180;7865;50.918;4.510;2023-02-18T13:50:41;101609.00;;;11.60
15607;BMP180;7865;50.918;4.510;2023-02-18T13:56:02;101612.00;;;11.50
15607;BMP180;7865;50.918;4.510;2023-02-18T14:01:13;101603.00;;;11.60
15607;BMP180;7865;50.918;4.510;2023-02-18T14:06:21;101607.00;;;11.60
15607;BMP180;7865;50.918;4.510;2023-02-18T14:11:33;101599.00;;;11.60
15607;BMP180;7865;50.918;4.510;2023-02-18T14:27:33;101612.00;;;11.40
15607;BMP180;7865;50.918;4.510;2023-02-18T14:32:38;101600.00;;;11.40
15607;BMP180;7865;50.918;4.510;2023-02-18T14:54:18;101584.00;;;11.90
15607;BMP180;7865;50.918;4.510;2023-02-18T14:59:24;101585.00;;;12.10
15607;BMP180;7865;50.918;4.510;2023-02-18T15:04:28;101587.00;;;12.10
15607;BMP180;7865;50.918;4.510;2023-02-18T15:09:30;101583.00;;;12.00
15607;BMP180;7865;50.918;4.510;2023-02-18T15:14:37;101585.00;;;11.90
15607;BMP180;7865;50.918;4.510;2023-02-18T15:19:42;101592.00;;;11.70
15607;BMP180;7865;50.918;4.510;2023-02-18T15:24:46;101575.00;;;11.60
15607;BMP180;7865;50.918;4.510;2023-02-18T15:29:49;101582.00;;;11.60
15607;BMP180;7865;50.918;4.510;2023-02-18T15:34:58;101584.00;;;11.60
15607;BMP180;7865;50.918;4.510;2023-02-18T15:40:03;101573.00;;;11.50
15607;BMP180;7865;50.918;4.510;2023-02-18T15:45:16;101578.00;;;11.40
15607;BMP180;7865;50.918;4.510;2023-02-18T15:50:36;101570.00;;;11.30
15607;BMP180;7865;50.918;4.510;2023-02-18T15:55:40;101569.00;;;11.30
15607;BMP180;7865;50.918;4.510;2023-02-18T16:00:52;101578.00;;;11.30
15607;BMP180;7865;50.918;4.510;2023-02-18T16:11:24;101574.00;;;11.10
15607;BMP180;7865;50.918;4.510;2023-02-18T16:16:30;101567.00;;;11.20
15607;BMP180;7865;50.918;4.510;2023-02-18T16:21:44;101573.00;;;11.20
15607;BMP180;7865;50.918;4.510;2023-02-18T16:26:46;101578.00;;;11.10
15607;BMP180;7865;50.918;4.510;2023-02-18T16:31:48;101561.00;;;11.10
15607;BMP180;7865;50.918;4.510;2023-02-18T16:36:50;101560.00;;;11.10
15607;BMP180;7865;50.918;4.510;2023-02-18T16:42:11;101571.00;;;11.00
15607;BMP180;7865;50.918;4.510;2023-02-18T16:47:15;101568.00;;;11.00
15607;BMP180;7865;50.918;4.510;2023-02-18T16:52:18;101568.00;;;11.00
15607;BMP180;7865;50.918;4.510;2023-02-18T16:57:20;101568.00;;;10.90
15607;BMP180;7865;50.918;4.510;2023-02-18T17:02:22;101567.00;;;10.90
15607;BMP180;7865;50.918;4.510;2023-02-18T17:07:25;101570.00;;;10.80
15607;BMP180;7865;50.918;4.510;2023-02-18T17:12:27;101563.00;;;10.80
15607;BMP180;7865;50.918;4.510;2023-02-18T17:17:28;101561.00;;;10.80
15607;BMP180;7865;50.918;4.510;2023-02-18T17:22:30;101559.00;;;10.80
15607;BMP180;7865;50.918;4.510;2023-02-18T17:27:32;101561.00;;;10.80
15607;BMP180;7865;50.918;4.510;2023-02-18T17:32:34;101561.00;;;10.80
15607;BMP180;7865;50.918;4.510;2023-02-18T17:37:37;101549.00;;;10.80
15607;BMP180;7865;50.918;4.510;2023-02-18T17:42:39;101556.00;;;10.80
15607;BMP180;7865;50.918;4.510;2023-02-18T17:47:40;101549.00;;;10.80
15607;BMP180;7865;50.918;4.510;2023-02-18T17:52:42;101556.00;;;10.70
15607;BMP180;7865;50.918;4.510;2023-02-18T17:57:45;101555.00;;;10.70
15607;BMP180;7865;50.918;4.510;2023-02-18T18:02:47;101552.00;;;10.70
15607;BMP180;7865;50.918;4.510;2023-02-18T18:07:50;101558.00;;;10.70
15607;BMP180;7865;50.918;4.510;2023-02-18T18:12:53;101554.00;;;10.70
15607;BMP180;7865;50.918;4.510;2023-02-18T18:17:56;101565.00;;;10.70
15607;BMP180;7865;50.918;4.510;2023-02-18T18:23:01;101557.00;;;10.70
15607;BMP180;7865;50.918;4.510;2023-02-18T18:28:04;101570.00;;;10.60
15607;BMP180;7865;50.918;4.510;2023-02-18T18:33:24;101568.00;;;10.50
15607;BMP180;7865;50.918;4.510;2023-02-18T18:38:28;101568.00;;;10.50
15607;BMP180;7865;50.918;4.510;2023-02-18T18:43:31;101569.00;;;10.60
15607;BMP180;7865;50.918;4.510;2023-02-18T18:48:34;101567.00;;;10.60
15607;BMP180;7865;50.918;4.510;2023-02-18T18:53:36;101559.00;;;10.60
15607;BMP180;7865;50.918;4.510;2023-02-18T18:58:38;101549.00;;;10.60
15607;BMP180;7865;50.918;4.510;2023-02-18T19:03:40;101558.00;;;10.60
15607;BMP180;7865;50.918;4.510;2023-02-18T19:08:43;101559.00;;;10.60
15607;BMP180;7865;50.918;4.510;2023-02-18T19:13:46;101549.00;;;10.60
15607;BMP180;7865;50.918;4.510;2023-02-18T19:18:48;101554.00;;;10.60
15607;BMP180;7865;50.918;4.510;2023-02-18T19:23:50;101563.00;;;10.60
15607;BMP180;7865;50.918;4.510;2023-02-18T19:28:52;101552.00;;;10.60
15607;BMP180;7865;50.918;4.510;2023-02-18T19:33:54;101546.00;;;10.60
15607;BMP180;7865;50.918;4.510;2023-02-18T19:38:56;101534.00;;;10.40
15607;BMP180;7865;50.918;4.510;2023-02-18T19:43:58;101523.00;;;10.30
15607;BMP180;7865;50.918;4.510;2023-02-18T19:49:00;101513.00;;;10.20
15607;BMP180;7865;50.918;4.510;2023-02-18T19:54:02;101516.00;;;10.10
15607;BMP180;7865;50.918;4.510;2023-02-18T19:59:05;101509.00;;;10.10
15607;BMP180;7865;50.918;4.510;2023-02-18T20:04:07;101504.00;;;10.10
15607;BMP180;7865;50.918;4.510;2023-02-18T20:09:09;101504.00;;;10.10
15607;BMP180;7865;50.918;4.510;2023-02-18T20:14:11;101506.00;;;10.10
15607;BMP180;7865;50.918;4.510;2023-02-18T20:19:13;101501.00;;;10.20
15607;BMP180;7865;50.918;4.510;2023-02-18T20:24:15;101494.00;;;10.20
15607;BMP180;7865;50.918;4.510;2023-02-18T20:29:17;101497.00;;;10.30
15607;BMP180;7865;50.918;4.510;2023-02-18T20:34:22;101476.00;;;10.30
15607;BMP180;7865;50.918;4.510;2023-02-18T20:39:24;101478.00;;;10.30
15607;BMP180;7865;50.918;4.510;2023-02-18T20:44:26;101482.00;;;10.30
15607;BMP180;7865;50.918;4.510;2023-02-18T20:49:29;101487.00;;;10.40
15607;BMP180;7865;50.918;4.510;2023-02-18T20:54:32;101482.00;;;10.40
15607;BMP180;7865;50.918;4.510;2023-02-18T20:59:34;101479.00;;;10.40
15607;BMP180;7865;50.918;4.510;2023-02-18T21:04:36;101472.00;;;10.40
15607;BMP180;7865;50.918;4.510;2023-02-18T21:09:38;101479.00;;;10.40
15607;BMP180;7865;50.918;4.510;2023-02-18T21:14:40;101483.00;;;10.40
15607;BMP180;7865;50.918;4.510;2023-02-18T21:19:42;101477.00;;;10.40
15607;BMP180;7865;50.918;4.510;2023-02-18T21:24:49;101477.00;;;10.50
15607;BMP180;7865;50.918;4.510;2023-02-18T21:29:51;101481.00;;;10.50
15607;BMP180;7865;50.918;4.510;2023-02-18T21:34:53;101487.00;;;10.50
15607;BMP180;7865;50.918;4.510;2023-02-18T21:39:55;101481.00;;;10.50
15607;BMP180;7865;50.918;4.510;2023-02-18T21:45:00;101471.00;;;10.50
15607;BMP180;7865;50.918;4.510;2023-02-18T21:50:04;101453.00;;;10.50
15607;BMP180;7865;50.918;4.510;2023-02-18T21:55:08;101454.00;;;10.50
15607;BMP180;7865;50.918;4.510;2023-02-18T22:00:10;101455.00;;;10.60
15607;BMP180;7865;50.918;4.510;2023-02-18T22:05:21;101471.00;;;10.60
15607;BMP180;7865;50.918;4.510;2023-02-18T22:10:26;101460.00;;;10.60
15607;BMP180;7865;50.918;4.510;2023-02-18T22:15:28;101474.00;;;10.60
15607;BMP180;7865;50.918;4.510;2023-02-18T22:20:30;101475.00;;;10.60
15607;BMP180;7865;50.918;4.510;2023-02-18T22:25:34;101480.00;;;10.60
15607;BMP180;7865;50.918;4.510;2023-02-18T22:30:38;101475.00;;;10.60
15607;BMP180;7865;50.918;4.510;2023-02-18T22:35:40;101487.00;;;10.60
15607;BMP180;7865;50.918;4.510;2023-02-18T22:40:42;101487.00;;;10.50
15607;BMP180;7865;50.918;4.510;2023-02-18T22:45:44;101492.00;;;10.50
15607;BMP180;7865;50.918;4.510;2023-02-18T22:50:46;101491.00;;;10.40
15607;BMP180;7865;50.918;4.510;2023-02-18T22:55:48;101495.00;;;10.30
15607;BMP180;7865;50.918;4.510;2023-02-18T23:00:50;101485.00;;;10.20
15607;BMP180;7865;50.918;4.510;2023-02-18T23:05:53;101485.00;;;10.10
15607;BMP180;7865;50.918;4.510;2023-02-18T23:11:05;101491.00;;;10.00
15607;BMP180;7865;50.918;4.510;2023-02-18T23:16:36;101484.00;;;10.00
15607;BMP180;7865;50.918;4.510;2023-02-18T23:22:31;101473.00;;;10.00
15607;BMP180;7865;50.918;4.510;2023-02-18T23:27:35;101477.00;;;10.00
15607;BMP180;7865;50.918;4.510;2023-02-18T23:32:37;101483.00;;;9.90
15607;BMP180;7865;50.918;4.510;2023-02-18T23:37:39;101478.00;;;9.90
15607;BMP180;7865;50.918;4.510;2023-02-18T23:43:00;101454.00;;;9.90
15607;BMP180;7865;50.918;4.510;2023-02-18T23:48:02;101463.00;;;9.90
15607;BMP180;7865;50.918;4.510;2023-02-18T23:53:04;101460.00;;;9.80
15607;BMP180;7865;50.918;4.510;2023-02-18T23:58:06;101455.00;;;9.80
